createdAt,value
2018-04-13T00:00:01.050Z,94145
2018-04-13T00:00:33.095Z,94137
2018-04-13T00:01:05.135Z,94137
2018-04-13T00:01:37.154Z,94136
2018-04-13T00:02:09.962Z,94134
2018-04-13T00:02:41.988Z,94134
2018-04-13T00:03:14.774Z,94137
2018-04-13T00:03:46.811Z,94134
2018-04-13T00:04:19.603Z,94134
2018-04-13T00:04:51.667Z,94135
2018-04-13T00:05:23.688Z,94135
2018-04-13T00:05:56.486Z,94132
2018-04-13T00:06:28.511Z,94132
2018-04-13T00:07:01.310Z,94134
2018-04-13T00:07:33.375Z,94132
2018-04-13T00:08:05.390Z,94130
2018-04-13T00:08:37.417Z,94130
2018-04-13T00:09:10.208Z,94130
2018-04-13T00:09:42.262Z,94131
2018-04-13T00:10:14.287Z,94127
2018-04-13T00:10:46.328Z,94123
2018-04-13T00:11:18.366Z,94126
2018-04-13T00:11:50.393Z,94125
2018-04-13T00:12:22.452Z,94125
2018-04-13T00:12:54.471Z,94124
2018-04-13T00:13:27.248Z,94125
2018-04-13T00:13:59.258Z,94125
2018-04-13T00:14:31.307Z,94127
2018-04-13T00:15:03.337Z,94128
2018-04-13T00:15:35.367Z,94123
2018-04-13T00:16:07.423Z,94124
2018-04-13T00:16:39.454Z,94123
2018-04-13T00:17:11.483Z,94121
2018-04-13T00:17:43.514Z,94124
2018-04-13T00:18:15.558Z,94124
2018-04-13T00:18:47.578Z,94128
2018-04-13T00:19:19.610Z,94124
2018-04-13T00:19:51.633Z,94120
2018-04-13T00:20:24.414Z,94128
2018-04-13T00:20:56.432Z,94128
2018-04-13T00:21:28.510Z,94128
2018-04-13T00:22:00.501Z,94124
2018-04-13T00:22:32.530Z,94124
2018-04-13T00:23:04.569Z,94124
2018-04-13T00:23:37.377Z,94124
2018-04-13T00:24:09.410Z,94122
2018-04-13T00:24:41.459Z,94125
2018-04-13T00:25:13.510Z,94122
2018-04-13T00:25:45.556Z,94118
2018-04-13T00:26:17.589Z,94117
2018-04-13T00:26:50.370Z,94121
2018-04-13T00:27:22.410Z,94118
2018-04-13T00:27:55.178Z,94115
2018-04-13T00:28:27.973Z,94115
2018-04-13T00:29:00.026Z,94112
2018-04-13T00:29:32.050Z,94108
2018-04-13T00:30:04.872Z,94110
2018-04-13T00:30:36.882Z,94104
2018-04-13T00:31:08.899Z,94105
2018-04-13T00:31:40.924Z,94106
2018-04-13T00:32:12.963Z,94106
2018-04-13T00:32:44.981Z,94103
2018-04-13T00:33:17.084Z,94108
2018-04-13T00:33:49.123Z,94106
2018-04-13T00:34:21.154Z,94103
2018-04-13T00:34:53.187Z,94101
2018-04-13T00:35:25.255Z,94108
2018-04-13T00:35:57.288Z,94100
2018-04-13T00:36:30.089Z,94106
2018-04-13T00:37:02.104Z,94104
2018-04-13T00:37:34.891Z,94109
2018-04-13T00:38:06.986Z,94107
2018-04-13T00:38:38.983Z,94102
2018-04-13T00:39:11.025Z,94106
2018-04-13T00:39:43.802Z,94104
2018-04-13T00:40:15.824Z,94109
2018-04-13T00:40:47.863Z,94112
2018-04-13T00:41:19.901Z,94109
2018-04-13T00:41:51.932Z,94113
2018-04-13T00:42:23.968Z,94107
2018-04-13T00:42:56.021Z,94112
2018-04-13T00:43:28.067Z,94113
2018-04-13T00:44:00.101Z,94111
2018-04-13T00:44:32.919Z,94106
2018-04-13T00:45:04.944Z,94110
2018-04-13T00:45:36.979Z,94109
2018-04-13T00:46:09.836Z,94113
2018-04-13T00:46:41.855Z,94113
2018-04-13T00:47:13.903Z,94111
2018-04-13T00:47:45.915Z,94114
2018-04-13T00:48:17.941Z,94114
2018-04-13T00:48:49.950Z,94112
2018-04-13T00:49:22.010Z,94112
2018-04-13T00:49:54.039Z,94115
2018-04-13T00:50:26.058Z,94116
2018-04-13T00:50:58.849Z,94120
2018-04-13T00:51:30.874Z,94121
2018-04-13T00:52:03.665Z,94118
2018-04-13T00:52:35.712Z,94116
2018-04-13T00:53:07.724Z,94117
2018-04-13T00:53:39.759Z,94119
2018-04-13T00:54:11.787Z,94116
2018-04-13T00:54:43.804Z,94118
2018-04-13T00:55:15.827Z,94119
2018-04-13T00:55:47.841Z,94125
2018-04-13T00:56:19.873Z,94122
2018-04-13T00:56:51.899Z,94119
2018-04-13T00:57:24.723Z,94121
2018-04-13T00:57:56.731Z,94122
2018-04-13T00:58:28.764Z,94124
2018-04-13T00:59:01.549Z,94123
2018-04-13T00:59:34.334Z,94124
2018-04-13T01:00:06.351Z,94125
2018-04-13T01:00:38.376Z,94131
2018-04-13T01:01:10.430Z,94131
2018-04-13T01:01:42.438Z,94129
2018-04-13T01:02:14.466Z,94131
2018-04-13T01:02:46.517Z,94134
2018-04-13T01:03:18.540Z,94136
2018-04-13T01:03:50.568Z,94134
2018-04-13T01:04:22.594Z,94134
2018-04-13T01:04:54.621Z,94136
2018-04-13T01:05:27.398Z,94136
2018-04-13T01:05:59.431Z,94134
2018-04-13T01:06:32.259Z,94132
2018-04-13T01:07:04.280Z,94135
2018-04-13T01:07:36.319Z,94139
2018-04-13T01:08:08.369Z,94133
2018-04-13T01:08:41.188Z,94134
2018-04-13T01:09:13.171Z,94132
2018-04-13T01:09:45.963Z,94134
2018-04-13T01:10:17.992Z,94131
2018-04-13T01:10:50.784Z,94131
2018-04-13T01:11:22.831Z,94129
2018-04-13T01:11:54.864Z,94131
2018-04-13T01:12:27.653Z,94134
2018-04-13T01:12:59.704Z,94130
2018-04-13T01:13:31.702Z,94133
2018-04-13T01:14:03.737Z,94127
2018-04-13T01:14:35.766Z,94132
2018-04-13T01:15:07.797Z,94129
2018-04-13T01:15:40.585Z,94132
2018-04-13T01:16:12.610Z,94133
2018-04-13T01:16:45.429Z,94130
2018-04-13T01:17:17.457Z,94136
2018-04-13T01:17:49.491Z,94131
2018-04-13T01:18:22.304Z,94136
2018-04-13T01:18:54.319Z,94134
2018-04-13T01:19:26.371Z,94136
2018-04-13T01:19:58.404Z,94136
2018-04-13T01:20:31.197Z,94133
2018-04-13T01:21:03.229Z,94136
2018-04-13T01:21:36.053Z,94134
2018-04-13T01:22:08.113Z,94137
2018-04-13T01:22:40.130Z,94133
2018-04-13T01:23:12.143Z,94134
2018-04-13T01:23:44.176Z,94131
2018-04-13T01:24:16.213Z,94132
2018-04-13T01:24:48.235Z,94129
2018-04-13T01:25:20.258Z,94130
2018-04-13T01:25:53.051Z,94129
2018-04-13T01:26:25.082Z,94125
2018-04-13T01:26:57.891Z,94129
2018-04-13T01:27:29.924Z,94129
2018-04-13T01:28:01.952Z,94130
2018-04-13T01:28:34.759Z,94127
2018-04-13T01:29:06.786Z,94132
2018-04-13T01:29:38.797Z,94131
2018-04-13T01:30:10.826Z,94132
2018-04-13T01:30:42.841Z,94130
2018-04-13T01:31:14.914Z,94132
2018-04-13T01:31:46.970Z,94128
2018-04-13T01:32:18.986Z,94133
2018-04-13T01:32:51.026Z,94140
2018-04-13T01:33:23.847Z,94138
2018-04-13T01:33:55.850Z,94136
2018-04-13T01:34:28.650Z,94137
2018-04-13T01:35:00.663Z,94138
2018-04-13T01:35:33.448Z,94139
2018-04-13T01:36:05.503Z,94134
2018-04-13T01:36:37.538Z,94135
2018-04-13T01:37:10.348Z,94138
2018-04-13T01:37:42.376Z,94137
2018-04-13T01:38:14.442Z,94139
2018-04-13T01:38:46.464Z,94138
2018-04-13T01:39:19.258Z,94139
2018-04-13T01:39:51.305Z,94140
2018-04-13T01:40:23.371Z,94140
2018-04-13T01:40:55.415Z,94137
2018-04-13T01:41:27.447Z,94136
2018-04-13T01:41:59.543Z,94141
2018-04-13T01:42:31.563Z,94139
2018-04-13T01:43:03.598Z,94138
2018-04-13T01:43:36.370Z,94141
2018-04-13T01:44:08.388Z,94143
2018-04-13T01:44:40.406Z,94143
2018-04-13T01:45:12.452Z,94143
2018-04-13T01:45:44.469Z,94146
2018-04-13T01:46:17.246Z,94149
2018-04-13T01:46:49.268Z,94143
2018-04-13T01:47:21.289Z,94150
2018-04-13T01:47:53.337Z,94151
2018-04-13T01:48:25.354Z,94150
2018-04-13T01:48:57.400Z,94153
2018-04-13T01:49:29.427Z,94151
2018-04-13T01:50:01.467Z,94151
2018-04-13T01:50:33.479Z,94152
2018-04-13T01:51:05.505Z,94152
2018-04-13T01:51:37.522Z,94152
2018-04-13T01:52:09.572Z,94155
2018-04-13T01:52:41.596Z,94155
2018-04-13T01:53:13.634Z,94149
2018-04-13T01:53:45.651Z,94152
2018-04-13T01:54:18.450Z,94150
2018-04-13T01:54:50.487Z,94152
2018-04-13T01:55:23.282Z,94155
2018-04-13T01:55:55.317Z,94149
2018-04-13T01:56:27.388Z,94145
2018-04-13T01:56:59.426Z,94147
2018-04-13T01:57:31.455Z,94148
2018-04-13T01:58:03.490Z,94147
2018-04-13T01:58:36.278Z,94151
2018-04-13T01:59:08.310Z,94148
2018-04-13T01:59:41.113Z,94146
2018-04-13T02:00:13.143Z,94149
2018-04-13T02:00:45.272Z,94144
2018-04-13T02:01:17.271Z,94152
2018-04-13T02:01:49.296Z,94148
2018-04-13T02:02:21.329Z,94144
2018-04-13T02:02:53.336Z,94153
2018-04-13T02:03:25.361Z,94156
2018-04-13T02:03:57.390Z,94159
2018-04-13T02:04:30.188Z,94156
2018-04-13T02:05:02.204Z,94154
2018-04-13T02:05:35.009Z,94153
2018-04-13T02:06:07.036Z,94149
2018-04-13T02:06:39.823Z,94144
2018-04-13T02:07:11.867Z,94146
2018-04-13T02:07:43.904Z,94156
2018-04-13T02:08:16.692Z,94150
2018-04-13T02:08:48.714Z,94154
2018-04-13T02:09:21.506Z,94154
2018-04-13T02:09:53.560Z,94157
2018-04-13T02:10:26.335Z,94158
2018-04-13T02:10:58.371Z,94158
2018-04-13T02:11:30.398Z,94152
2018-04-13T02:12:02.436Z,94162
2018-04-13T02:12:34.454Z,94161
2018-04-13T02:13:06.493Z,94161
2018-04-13T02:13:38.520Z,94159
2018-04-13T02:14:11.312Z,94159
2018-04-13T02:14:43.335Z,94164
2018-04-13T02:15:16.123Z,94168
2018-04-13T02:15:48.171Z,94168
2018-04-13T02:16:20.192Z,94163
2018-04-13T02:16:52.206Z,94163
2018-04-13T02:17:24.255Z,94167
2018-04-13T02:17:56.284Z,94172
2018-04-13T02:18:28.327Z,94169
2018-04-13T02:19:01.101Z,94171
2018-04-13T02:19:33.150Z,94166
2018-04-13T02:20:05.167Z,94169
2018-04-13T02:20:37.204Z,94166
2018-04-13T02:21:09.247Z,94166
2018-04-13T02:21:41.295Z,94169
2018-04-13T02:22:13.290Z,94167
2018-04-13T02:22:46.113Z,94172
2018-04-13T02:23:18.141Z,94174
2018-04-13T02:23:50.174Z,94169
2018-04-13T02:24:22.204Z,94174
2018-04-13T02:24:55.012Z,94173
2018-04-13T02:25:27.041Z,94173
2018-04-13T02:25:59.834Z,94171
2018-04-13T02:26:31.863Z,94174
2018-04-13T02:27:03.947Z,94176
2018-04-13T02:27:36.030Z,94173
2018-04-13T02:28:07.999Z,94175
2018-04-13T02:28:40.805Z,94171
2018-04-13T02:29:12.843Z,94176
2018-04-13T02:29:44.877Z,94173
2018-04-13T02:30:17.678Z,94174
2018-04-13T02:30:49.715Z,94174
2018-04-13T02:31:21.744Z,94176
2018-04-13T02:31:54.529Z,94177
2018-04-13T02:32:26.559Z,94177
2018-04-13T02:32:59.418Z,94178
2018-04-13T02:33:31.423Z,94181
2018-04-13T02:34:03.459Z,94175
2018-04-13T02:34:35.589Z,94178
2018-04-13T02:35:07.535Z,94177
2018-04-13T02:35:39.558Z,94178
2018-04-13T02:36:11.587Z,94175
2018-04-13T02:36:43.627Z,94173
2018-04-13T02:37:15.681Z,94176
2018-04-13T02:37:48.439Z,94171
2018-04-13T02:38:20.470Z,94176
2018-04-13T02:38:53.267Z,94176
2018-04-13T02:39:25.428Z,94174
2018-04-13T02:39:57.479Z,94173
2018-04-13T02:40:29.502Z,94175
2018-04-13T02:41:02.311Z,94175
2018-04-13T02:41:34.332Z,94174
2018-04-13T02:42:06.420Z,94171
2018-04-13T02:42:38.488Z,94170
2018-04-13T02:43:10.515Z,94174
2018-04-13T02:43:42.545Z,94173
2018-04-13T02:44:14.562Z,94169
2018-04-13T02:44:46.589Z,94171
2018-04-13T02:45:18.615Z,94180
2018-04-13T02:45:50.632Z,94175
2018-04-13T02:46:23.409Z,94174
2018-04-13T02:46:55.468Z,94173
2018-04-13T02:47:27.494Z,94177
2018-04-13T02:48:00.283Z,94175
2018-04-13T02:48:32.358Z,94173
2018-04-13T02:49:04.375Z,94175
2018-04-13T02:49:37.179Z,94172
2018-04-13T02:50:09.200Z,94174
2018-04-13T02:50:41.235Z,94175
2018-04-13T02:51:14.034Z,94174
2018-04-13T02:51:46.090Z,94167
2018-04-13T02:52:18.153Z,94172
2018-04-13T02:52:50.178Z,94171
2018-04-13T02:53:22.272Z,94176
2018-04-13T02:53:54.293Z,94173
2018-04-13T02:54:26.310Z,94175
2018-04-13T02:54:59.108Z,94175
2018-04-13T02:55:31.127Z,94174
2018-04-13T02:56:03.927Z,94178
2018-04-13T02:56:36.035Z,94175
2018-04-13T02:57:08.024Z,94177
2018-04-13T02:57:40.050Z,94176
2018-04-13T02:58:12.837Z,94176
2018-04-13T02:58:45.654Z,94177
2018-04-13T02:59:17.692Z,94178
2018-04-13T02:59:49.726Z,94181
2018-04-13T03:00:21.750Z,94183
2018-04-13T03:00:54.536Z,94185
2018-04-13T03:01:26.581Z,94186
2018-04-13T03:01:59.354Z,94188
2018-04-13T03:02:31.398Z,94186
2018-04-13T03:03:04.224Z,94185
2018-04-13T03:03:36.221Z,94187
2018-04-13T03:04:08.238Z,94185
2018-04-13T03:04:40.272Z,94190
2018-04-13T03:05:12.326Z,94189
2018-04-13T03:05:44.354Z,94191
2018-04-13T03:06:16.379Z,94194
2018-04-13T03:06:48.399Z,94190
2018-04-13T03:07:20.428Z,94188
2018-04-13T03:07:52.453Z,94193
2018-04-13T03:08:24.510Z,94194
2018-04-13T03:08:56.531Z,94195
2018-04-13T03:09:29.308Z,94195
2018-04-13T03:10:01.344Z,94195
2018-04-13T03:10:34.161Z,94195
2018-04-13T03:11:06.199Z,94201
2018-04-13T03:11:38.229Z,94198
2018-04-13T03:12:10.258Z,94198
2018-04-13T03:12:43.055Z,94203
2018-04-13T03:13:15.108Z,94201
2018-04-13T03:13:47.131Z,94201
2018-04-13T03:14:19.910Z,94202
2018-04-13T03:14:51.949Z,94203
2018-04-13T03:15:23.972Z,94201
2018-04-13T03:15:55.996Z,94201
2018-04-13T03:16:28.024Z,94201
2018-04-13T03:17:00.052Z,94200
2018-04-13T03:17:32.071Z,94201
2018-04-13T03:18:04.100Z,94205
2018-04-13T03:18:36.118Z,94204
2018-04-13T03:19:08.157Z,94204
2018-04-13T03:19:40.188Z,94207
2018-04-13T03:20:12.203Z,94207
2018-04-13T03:20:44.236Z,94207
2018-04-13T03:21:16.263Z,94209
2018-04-13T03:21:49.067Z,94210
2018-04-13T03:22:21.110Z,94205
2018-04-13T03:22:53.151Z,94203
2018-04-13T03:23:25.924Z,94211
2018-04-13T03:23:57.964Z,94202
2018-04-13T03:24:30.770Z,94205
2018-04-13T03:25:02.805Z,94208
2018-04-13T03:25:34.822Z,94215
2018-04-13T03:26:06.857Z,94210
2018-04-13T03:26:38.878Z,94214
2018-04-13T03:27:10.929Z,94213
2018-04-13T03:27:42.947Z,94213
2018-04-13T03:28:14.979Z,94219
2018-04-13T03:28:47.799Z,94219
2018-04-13T03:29:19.798Z,94212
2018-04-13T03:29:52.606Z,94213
2018-04-13T03:30:24.622Z,94216
2018-04-13T03:30:57.415Z,94223
2018-04-13T03:31:29.435Z,94221
2018-04-13T03:32:01.478Z,94219
2018-04-13T03:32:33.499Z,94218
2018-04-13T03:33:05.528Z,94220
2018-04-13T03:33:37.584Z,94221
2018-04-13T03:34:10.339Z,94221
2018-04-13T03:34:42.400Z,94223
2018-04-13T03:35:14.419Z,94228
2018-04-13T03:35:47.206Z,94232
2018-04-13T03:36:19.248Z,94229
2018-04-13T03:36:52.069Z,94230
2018-04-13T03:37:24.088Z,94232
2018-04-13T03:37:56.102Z,94232
2018-04-13T03:38:28.900Z,94230
2018-04-13T03:39:00.925Z,94237
2018-04-13T03:39:33.719Z,94234
2018-04-13T03:40:05.751Z,94236
2018-04-13T03:40:38.572Z,94237
2018-04-13T03:41:10.583Z,94236
2018-04-13T03:41:42.612Z,94239
2018-04-13T03:42:14.655Z,94240
2018-04-13T03:42:46.674Z,94240
2018-04-13T03:43:18.706Z,94245
2018-04-13T03:43:50.727Z,94243
2018-04-13T03:44:23.538Z,94240
2018-04-13T03:44:55.563Z,94243
2018-04-13T03:45:27.596Z,94247
2018-04-13T03:46:00.387Z,94247
2018-04-13T03:46:32.416Z,94249
2018-04-13T03:47:05.257Z,94245
2018-04-13T03:47:37.234Z,94253
2018-04-13T03:48:10.023Z,94252
2018-04-13T03:48:42.104Z,94252
2018-04-13T03:49:14.098Z,94252
2018-04-13T03:49:46.149Z,94254
2018-04-13T03:50:18.178Z,94256
2018-04-13T03:50:50.206Z,94255
2018-04-13T03:51:22.232Z,94254
2018-04-13T03:51:54.264Z,94257
2018-04-13T03:52:27.047Z,94254
2018-04-13T03:52:59.062Z,94253
2018-04-13T03:53:31.090Z,94254
2018-04-13T03:54:03.118Z,94255
2018-04-13T03:54:35.153Z,94255
2018-04-13T03:55:07.926Z,94255
2018-04-13T03:55:39.948Z,94255
2018-04-13T03:56:11.958Z,94257
2018-04-13T03:56:43.985Z,94261
2018-04-13T03:57:16.164Z,94258
2018-04-13T03:57:48.182Z,94259
2018-04-13T03:58:20.232Z,94264
2018-04-13T03:58:53.006Z,94258
2018-04-13T03:59:25.015Z,94261
2018-04-13T03:59:57.034Z,94258
2018-04-13T04:00:29.124Z,94262
2018-04-13T04:01:01.200Z,94257
2018-04-13T04:01:33.549Z,94264
2018-04-13T04:02:05.644Z,94259
2018-04-13T04:02:38.394Z,94262
2018-04-13T04:03:10.427Z,94260
2018-04-13T04:03:43.202Z,94259
2018-04-13T04:04:15.230Z,94258
2018-04-13T04:04:47.247Z,94261
2018-04-13T04:05:19.290Z,94258
2018-04-13T04:05:51.321Z,94261
2018-04-13T04:06:23.361Z,94264
2018-04-13T04:06:55.375Z,94271
2018-04-13T04:07:27.431Z,94268
2018-04-13T04:07:59.456Z,94273
2018-04-13T04:08:31.466Z,94275
2018-04-13T04:09:03.495Z,94276
2018-04-13T04:09:36.300Z,94270
2018-04-13T04:10:08.401Z,94274
2018-04-13T04:10:40.387Z,94274
2018-04-13T04:11:12.427Z,94266
2018-04-13T04:11:45.207Z,94266
2018-04-13T04:12:17.234Z,94270
2018-04-13T04:12:50.039Z,94267
2018-04-13T04:13:22.070Z,94269
2018-04-13T04:13:54.872Z,94265
2018-04-13T04:14:26.889Z,94267
2018-04-13T04:14:59.698Z,94269
2018-04-13T04:15:31.719Z,94269
2018-04-13T04:16:03.776Z,94273
2018-04-13T04:16:36.558Z,94269
2018-04-13T04:17:08.608Z,94272
2018-04-13T04:17:40.628Z,94277
2018-04-13T04:18:13.438Z,94275
2018-04-13T04:18:45.464Z,94276
2018-04-13T04:19:17.542Z,94279
2018-04-13T04:19:49.561Z,94275
2018-04-13T04:20:22.350Z,94279
2018-04-13T04:20:54.381Z,94274
2018-04-13T04:21:26.400Z,94274
2018-04-13T04:21:58.476Z,94272
2018-04-13T04:22:31.261Z,94269
2018-04-13T04:23:03.298Z,94275
2018-04-13T04:23:36.091Z,94274
2018-04-13T04:24:08.161Z,94271
2018-04-13T04:24:40.161Z,94269
2018-04-13T04:25:12.941Z,94277
2018-04-13T04:25:45.760Z,94274
2018-04-13T04:26:17.796Z,94284
2018-04-13T04:26:49.827Z,94278
2018-04-13T04:27:21.853Z,94281
2018-04-13T04:27:54.638Z,94285
2018-04-13T04:28:26.666Z,94287
2018-04-13T04:28:58.691Z,94289
2018-04-13T04:29:30.756Z,94290
2018-04-13T04:30:02.793Z,94291
2018-04-13T04:30:34.841Z,94292
2018-04-13T04:31:06.870Z,94296
2018-04-13T04:31:38.909Z,94295
2018-04-13T04:32:10.956Z,94297
2018-04-13T04:32:42.985Z,94300
2018-04-13T04:33:15.783Z,94296
2018-04-13T04:33:47.825Z,94301
2018-04-13T04:34:19.890Z,94298
2018-04-13T04:34:51.934Z,94299
2018-04-13T04:35:23.967Z,94301
2018-04-13T04:35:55.991Z,94297
2018-04-13T04:36:28.032Z,94292
2018-04-13T04:37:00.032Z,94301
2018-04-13T04:37:32.070Z,94298
2018-04-13T04:38:04.862Z,94301
2018-04-13T04:38:36.882Z,94301
2018-04-13T04:39:09.683Z,94304
2018-04-13T04:39:41.700Z,94304
2018-04-13T04:40:14.492Z,94305
2018-04-13T04:40:46.533Z,94304
2018-04-13T04:41:19.323Z,94307
2018-04-13T04:41:51.392Z,94309
2018-04-13T04:42:23.433Z,94307
2018-04-13T04:42:55.456Z,94309
2018-04-13T04:43:28.397Z,94308
2018-04-13T04:44:00.393Z,94301
2018-04-13T04:44:32.402Z,94305
2018-04-13T04:45:04.477Z,94310
2018-04-13T04:45:37.264Z,94308
2018-04-13T04:46:09.281Z,94308
2018-04-13T04:46:41.316Z,94306
2018-04-13T04:47:13.338Z,94306
2018-04-13T04:47:45.367Z,94315
2018-04-13T04:48:17.379Z,94311
2018-04-13T04:48:50.179Z,94311
2018-04-13T04:49:22.213Z,94315
2018-04-13T04:49:55.013Z,94317
2018-04-13T04:50:27.082Z,94314
2018-04-13T04:50:59.109Z,94317
2018-04-13T04:51:31.145Z,94319
2018-04-13T04:52:03.933Z,94321
2018-04-13T04:52:35.977Z,94320
2018-04-13T04:53:08.022Z,94322
2018-04-13T04:53:40.848Z,94325
2018-04-13T04:54:12.854Z,94324
2018-04-13T04:54:44.887Z,94326
2018-04-13T04:55:16.933Z,94321
2018-04-13T04:55:49.785Z,94323
2018-04-13T04:56:21.788Z,94323
2018-04-13T04:56:53.811Z,94330
2018-04-13T04:57:26.622Z,94330
2018-04-13T04:57:58.649Z,94332
2018-04-13T04:58:30.679Z,94329
2018-04-13T04:59:03.463Z,94328
2018-04-13T04:59:35.486Z,94328
2018-04-13T05:00:07.507Z,94330
2018-04-13T05:00:39.540Z,94334
2018-04-13T05:01:11.577Z,94331
2018-04-13T05:01:43.628Z,94332
2018-04-13T05:02:15.675Z,94328
2018-04-13T05:02:48.439Z,94329
2018-04-13T05:03:20.479Z,94329
2018-04-13T05:03:53.259Z,94329
2018-04-13T05:04:25.278Z,94331
2018-04-13T05:04:58.083Z,94325
2018-04-13T05:05:30.114Z,94325
2018-04-13T05:06:02.913Z,94326
2018-04-13T05:06:34.929Z,94328
2018-04-13T05:07:07.722Z,94329
2018-04-13T05:07:39.744Z,94328
2018-04-13T05:08:11.761Z,94330
2018-04-13T05:08:43.781Z,94328
2018-04-13T05:09:15.814Z,94330
2018-04-13T05:09:48.607Z,94332
2018-04-13T05:10:20.648Z,94332
2018-04-13T05:10:52.677Z,94334
2018-04-13T05:11:24.705Z,94334
2018-04-13T05:11:56.752Z,94330
2018-04-13T05:12:28.794Z,94335
2018-04-13T05:13:00.826Z,94327
2018-04-13T05:13:32.843Z,94332
2018-04-13T05:14:04.883Z,94332
2018-04-13T05:14:37.673Z,94334
2018-04-13T05:15:09.687Z,94329
2018-04-13T05:15:41.719Z,94333
2018-04-13T05:16:13.739Z,94335
2018-04-13T05:16:45.760Z,94336
2018-04-13T05:17:18.538Z,94336
2018-04-13T05:17:50.559Z,94335
2018-04-13T05:18:22.598Z,94339
2018-04-13T05:18:54.667Z,94345
2018-04-13T05:19:26.675Z,94339
2018-04-13T05:19:58.700Z,94343
2018-04-13T05:20:30.739Z,94348
2018-04-13T05:21:03.525Z,94347
2018-04-13T05:21:35.564Z,94345
2018-04-13T05:22:08.342Z,94348
2018-04-13T05:22:40.375Z,94348
2018-04-13T05:23:13.219Z,94351
2018-04-13T05:23:45.216Z,94347
2018-04-13T05:24:17.237Z,94347
2018-04-13T05:24:50.053Z,94346
2018-04-13T05:25:22.151Z,94348
2018-04-13T05:25:54.152Z,94346
2018-04-13T05:26:26.192Z,94344
2018-04-13T05:26:58.247Z,94346
2018-04-13T05:27:31.011Z,94349
2018-04-13T05:28:03.037Z,94348
2018-04-13T05:28:35.827Z,94351
2018-04-13T05:29:07.899Z,94351
2018-04-13T05:29:39.925Z,94349
2018-04-13T05:30:11.973Z,94350
2018-04-13T05:30:44.001Z,94353
2018-04-13T05:31:16.122Z,94354
2018-04-13T05:31:48.197Z,94345
2018-04-13T05:32:20.210Z,94354
2018-04-13T05:32:52.238Z,94356
2018-04-13T05:33:25.071Z,94356
2018-04-13T05:33:57.060Z,94359
2018-04-13T05:34:29.096Z,94360
2018-04-13T05:35:01.178Z,94357
2018-04-13T05:35:33.263Z,94360
2018-04-13T05:36:05.295Z,94359
2018-04-13T05:36:37.320Z,94362
2018-04-13T05:37:09.339Z,94362
2018-04-13T05:37:42.148Z,94363
2018-04-13T05:38:14.170Z,94365
2018-04-13T05:38:46.963Z,94365
2018-04-13T05:39:19.016Z,94367
2018-04-13T05:39:51.148Z,94366
2018-04-13T05:40:23.141Z,94364
2018-04-13T05:40:55.162Z,94363
2018-04-13T05:41:27.201Z,94359
2018-04-13T05:42:00.002Z,94368
2018-04-13T05:42:32.033Z,94364
2018-04-13T05:43:04.067Z,94364
2018-04-13T05:43:36.855Z,94368
2018-04-13T05:44:08.892Z,94366
2018-04-13T05:44:41.676Z,94371
2018-04-13T05:45:13.701Z,94371
2018-04-13T05:45:46.522Z,94371
2018-04-13T05:46:18.546Z,94370
2018-04-13T05:46:50.575Z,94368
2018-04-13T05:47:23.366Z,94370
2018-04-13T05:47:55.387Z,94368
2018-04-13T05:48:27.401Z,94370
2018-04-13T05:48:59.420Z,94375
2018-04-13T05:49:31.463Z,94375
2018-04-13T05:50:04.238Z,94374
2018-04-13T05:50:36.271Z,94377
2018-04-13T05:51:09.062Z,94376
2018-04-13T05:51:41.107Z,94378
2018-04-13T05:52:13.915Z,94375
2018-04-13T05:52:45.951Z,94379
2018-04-13T05:53:17.977Z,94378
2018-04-13T05:53:49.995Z,94376
2018-04-13T05:54:22.051Z,94378
2018-04-13T05:54:54.071Z,94377
2018-04-13T05:55:26.148Z,94375
2018-04-13T05:55:58.151Z,94379
2018-04-13T05:56:30.174Z,94379
2018-04-13T05:57:02.981Z,94377
2018-04-13T05:57:35.002Z,94379
2018-04-13T05:58:07.070Z,94375
2018-04-13T05:58:39.107Z,94378
2018-04-13T05:59:11.140Z,94377
2018-04-13T05:59:43.949Z,94384
2018-04-13T06:00:16.015Z,94381
2018-04-13T06:00:48.023Z,94382
2018-04-13T06:01:20.815Z,94379
2018-04-13T06:01:52.852Z,94381
2018-04-13T06:02:24.923Z,94382
2018-04-13T06:02:56.965Z,94381
2018-04-13T06:03:28.990Z,94377
2018-04-13T06:04:01.813Z,94379
2018-04-13T06:04:33.846Z,94379
2018-04-13T06:05:05.875Z,94391
2018-04-13T06:05:38.667Z,94384
2018-04-13T06:06:10.703Z,94381
2018-04-13T06:06:43.477Z,94385
2018-04-13T06:07:15.501Z,94384
2018-04-13T06:07:48.293Z,94386
2018-04-13T06:08:20.319Z,94389
2018-04-13T06:08:53.116Z,94388
2018-04-13T06:09:25.137Z,94387
2018-04-13T06:09:57.960Z,94386
2018-04-13T06:10:29.969Z,94390
2018-04-13T06:11:02.774Z,94392
2018-04-13T06:11:34.804Z,94398
2018-04-13T06:12:06.831Z,94397
2018-04-13T06:12:39.666Z,94392
2018-04-13T06:13:11.674Z,94396
2018-04-13T06:13:43.710Z,94392
2018-04-13T06:14:16.491Z,94395
2018-04-13T06:14:48.520Z,94396
2018-04-13T06:15:21.326Z,94396
2018-04-13T06:15:53.353Z,94396
2018-04-13T06:16:26.150Z,94402
2018-04-13T06:16:58.177Z,94395
2018-04-13T06:17:30.199Z,94396
2018-04-13T06:18:02.219Z,94395
2018-04-13T06:18:34.258Z,94395
2018-04-13T06:19:06.279Z,94400
2018-04-13T06:19:39.054Z,94405
2018-04-13T06:20:11.118Z,94399
2018-04-13T06:20:43.874Z,94398
2018-04-13T06:21:15.917Z,94399
2018-04-13T06:21:48.694Z,94404
2018-04-13T06:22:20.727Z,94398
2018-04-13T06:22:53.528Z,94402
2018-04-13T06:23:25.547Z,94403
2018-04-13T06:23:58.355Z,94404
2018-04-13T06:24:30.435Z,94399
2018-04-13T06:25:02.401Z,94402
2018-04-13T06:25:34.416Z,94407
2018-04-13T06:26:06.457Z,94402
2018-04-13T06:26:38.481Z,94404
2018-04-13T06:27:11.278Z,94405
2018-04-13T06:27:43.289Z,94408
2018-04-13T06:28:16.090Z,94404
2018-04-13T06:28:48.104Z,94406
2018-04-13T06:29:20.887Z,94403
2018-04-13T06:29:52.962Z,94408
2018-04-13T06:30:24.934Z,94413
2018-04-13T06:30:56.982Z,94416
2018-04-13T06:31:29.011Z,94416
2018-04-13T06:32:01.033Z,94417
2018-04-13T06:32:33.822Z,94415
2018-04-13T06:33:05.839Z,94409
2018-04-13T06:33:37.861Z,94418
2018-04-13T06:34:09.885Z,94419
2018-04-13T06:34:41.904Z,94417
2018-04-13T06:35:14.694Z,94431
2018-04-13T06:35:46.720Z,94426
2018-04-13T06:36:18.730Z,94424
2018-04-13T06:36:50.803Z,94424
2018-04-13T06:37:22.818Z,94421
2018-04-13T06:37:54.856Z,94424
2018-04-13T06:38:26.871Z,94423
2018-04-13T06:38:59.665Z,94428
2018-04-13T06:39:31.691Z,94419
2018-04-13T06:40:04.487Z,94431
2018-04-13T06:40:36.517Z,94433
2018-04-13T06:41:08.533Z,94427
2018-04-13T06:41:40.560Z,94428
2018-04-13T06:42:12.573Z,94430
2018-04-13T06:42:45.396Z,94432
2018-04-13T06:43:17.415Z,94433
2018-04-13T06:43:49.443Z,94432
2018-04-13T06:44:22.234Z,94434
2018-04-13T06:44:54.248Z,94440
2018-04-13T06:45:26.276Z,94432
2018-04-13T06:45:58.299Z,94433
2018-04-13T06:46:30.319Z,94435
2018-04-13T06:47:03.156Z,94435
2018-04-13T06:47:35.180Z,94438
2018-04-13T06:48:07.210Z,94440
2018-04-13T06:48:39.350Z,94439
2018-04-13T06:49:11.326Z,94443
2018-04-13T06:49:43.356Z,94443
2018-04-13T06:50:16.133Z,94441
2018-04-13T06:50:48.152Z,94450
2018-04-13T06:51:20.180Z,94451
2018-04-13T06:51:52.203Z,94445
2018-04-13T06:52:24.215Z,94450
2018-04-13T06:52:57.007Z,94449
2018-04-13T06:53:29.042Z,94449
2018-04-13T06:54:01.835Z,94451
2018-04-13T06:54:33.877Z,94454